Time;durP1;ratioP1;P1;durP2;ratioP2;P2;SDS_P1;SDS_P2;PMS_P1;PMS_P2;Temp;Humidity;BMP_temperature;BMP_pressure;BME280_temperature;BME280_humidity;BME280_pressure;Samples;Min_cycle;Max_cycle;Signal;HPM_P1;HPM_P2
2022/10/15 00:02:24;;;;;;;0.73;0.38;;;22.50;86.30;;;;;;5090351;28;20211;-82
2022/10/15 00:04:56;;;;;;;2.03;0.50;;;22.60;85.10;;;;;;5090825;28;20544;-82
2022/10/15 00:07:27;;;;;;;0.80;0.30;;;22.50;85.60;;;;;;5089190;28;20191;-82
2022/10/15 00:10:00;;;;;;;1.25;0.40;;;22.60;87.40;;;;;;5094120;28;20266;-82
2022/10/15 00:12:30;;;;;;;1.77;0.55;;;22.60;86.90;;;;;;5098147;28;20282;-82
2022/10/15 00:15:01;;;;;;;2.65;0.50;;;22.80;84.00;;;;;;5108923;28;20219;-81
2022/10/15 00:17:32;;;;;;;1.33;0.50;;;23.00;80.50;;;;;;5091542;28;20282;-82
2022/10/15 00:20:04;;;;;;;2.40;0.45;;;23.00;79.90;;;;;;5098268;28;20222;-82
2022/10/15 00:22:35;;;;;;;1.63;0.50;;;23.20;79.60;;;;;;5088477;28;20199;-82
2022/10/15 00:25:08;;;;;;;0.40;0.40;;;23.10;79.80;;;;;;5093818;28;20206;-79
2022/10/15 00:27:39;;;;;;;1.23;0.47;;;23.20;78.60;;;;;;5072057;28;20206;-82
2022/10/15 00:30:11;;;;;;;0.70;0.30;;;23.30;78.40;;;;;;5070716;28;20283;-81
2022/10/15 00:32:42;;;;;;;0.60;0.30;;;23.40;77.30;;;;;;5072950;28;20515;-81
2022/10/15 00:35:13;;;;;;;2.83;0.93;;;23.50;74.20;;;;;;5070414;28;20196;-80
2022/10/15 00:37:44;;;;;;;2.75;0.80;;;23.50;77.40;;;;;;5088698;28;20226;-80
2022/10/15 00:40:18;;;;;;;1.90;0.40;;;23.70;82.40;;;;;;5091980;28;20283;-80
2022/10/15 00:42:52;;;;;;;2.65;0.70;;;23.80;81.80;;;;;;5092374;28;20277;-80
2022/10/15 00:45:23;;;;;;;1.95;0.40;;;23.60;83.40;;;;;;5092326;28;20658;-80
2022/10/15 00:47:55;;;;;;;2.83;0.50;;;23.70;83.50;;;;;;5091931;28;20191;-81
2022/10/15 00:50:28;;;;;;;2.42;0.40;;;23.80;80.50;;;;;;5091046;28;20217;-80
2022/10/15 00:53:03;;;;;;;1.55;0.43;;;23.70;81.90;;;;;;5091446;28;20666;-79
2022/10/15 00:55:38;;;;;;;4.57;0.57;;;23.70;80.20;;;;;;5090163;28;20203;-80
2022/10/15 00:58:12;;;;;;;1.23;0.47;;;23.80;79.20;;;;;;5084833;28;20198;-80
2022/10/15 01:00:45;;;;;;;2.33;0.43;;;23.60;82.20;;;;;;5071313;28;20282;-79
2022/10/15 01:03:16;;;;;;;4.47;0.63;;;23.60;80.50;;;;;;5073005;28;20241;-80
2022/10/15 01:05:49;;;;;;;3.80;0.80;;;23.60;80.00;;;;;;5071067;28;20207;-80
2022/10/15 01:08:19;;;;;;;3.75;0.70;;;23.70;80.90;;;;;;5071506;28;20211;-80
2022/10/15 01:11:02;;;;;;;3.33;0.52;;;23.70;81.40;;;;;;5080363;28;20257;-80
2022/10/15 01:13:39;;;;;;;2.97;0.55;;;23.80;81.40;;;;;;5090837;28;20198;-79
2022/10/15 01:16:21;;;;;;;1.30;0.40;;;23.80;79.50;;;;;;5090515;28;20229;-80
2022/10/15 01:18:58;;;;;;;1.20;0.35;;;23.80;79.00;;;;;;5091405;28;20195;-80
2022/10/15 01:21:34;;;;;;;1.60;0.50;;;24.00;79.80;;;;;;5093806;28;20247;-80
2022/10/15 01:24:40;;;;;;;1.35;0.60;;;24.10;76.10;;;;;;5089264;28;20227;-80
2022/10/15 01:27:40;;;;;;;2.00;0.60;;;24.30;78.80;;;;;;5075297;28;20278;-80
2022/10/15 01:30:25;;;;;;;4.72;0.60;;;24.30;78.40;;;;;;5102216;28;20721;-80
2022/10/15 01:33:26;;;;;;;4.63;0.75;;;24.20;81.00;;;;;;5101470;28;20199;-79
2022/10/15 01:36:04;;;;;;;2.05;0.60;;;24.40;81.30;;;;;;5095664;28;20203;-80
2022/10/15 01:38:47;;;;;;;4.60;0.80;;;24.50;81.50;;;;;;5094958;28;20210;-81
2022/10/15 01:41:21;;;;;;;2.22;0.73;;;24.60;83.90;;;;;;5087067;28;20374;-81
2022/10/15 01:44:01;;;;;;;1.25;0.60;;;24.50;79.40;;;;;;5079658;28;20191;-80
2022/10/15 01:46:38;;;;;;;2.58;0.68;;;24.60;80.90;;;;;;5094892;28;20213;-80
2022/10/15 01:49:10;;;;;;;1.30;0.43;;;24.70;81.70;;;;;;5095824;28;20272;-80
2022/10/15 01:51:43;;;;;;;5.35;0.80;;;24.60;80.40;;;;;;5094644;28;20218;-80
2022/10/15 01:54:51;;;;;;;4.20;0.60;;;24.70;82.00;;;;;;5094726;28;20203;-80
2022/10/15 01:57:23;;;;;;;2.55;0.80;;;24.60;83.10;;;;;;5083353;28;20279;-80
2022/10/15 01:59:54;;;;;;;4.13;0.57;;;24.70;84.40;;;;;;5074574;28;20203;-80
2022/10/15 02:02:30;;;;;;;2.75;0.65;;;24.60;80.20;;;;;;5093948;28;20215;-80
2022/10/15 02:05:01;;;;;;;1.73;0.60;;;24.60;83.00;;;;;;5100784;28;20338;-80
2022/10/15 02:07:42;;;;;;;1.67;0.60;;;24.70;83.30;;;;;;5096438;28;20191;-80
2022/10/15 02:10:26;;;;;;;3.20;0.60;;;24.90;85.20;;;;;;5096379;28;20298;-80
2022/10/15 02:13:12;;;;;;;2.13;0.65;;;25.10;82.80;;;;;;5095448;28;20226;-80
2022/10/15 02:15:49;;;;;;;1.58;0.55;;;25.20;82.30;;;;;;5079766;28;20228;-79
2022/10/15 02:18:30;;;;;;;3.08;0.40;;;25.40;75.30;;;;;;5086513;28;20572;-80
2022/10/15 02:21:07;;;;;;;3.78;0.60;;;25.50;73.20;;;;;;5098020;28;20197;-80
2022/10/15 02:23:45;;;;;;;0.82;0.40;;;25.20;76.30;;;;;;5114081;28;20498;-80
2022/10/15 02:26:17;;;;;;;4.20;0.70;;;25.50;72.30;;;;;;5094816;28;20203;-80
2022/10/15 02:28:51;;;;;;;3.83;0.60;;;25.70;73.70;;;;;;5093232;28;20302;-80
2022/10/15 02:31:36;;;;;;;2.67;0.60;;;25.90;76.40;;;;;;5081027;28;20254;-80
2022/10/15 02:34:19;;;;;;;3.45;0.60;;;25.90;76.50;;;;;;5088848;28;20260;-81
2022/10/15 02:36:51;;;;;;;6.10;0.70;;;25.70;77.50;;;;;;5098190;28;20195;-83
2022/10/15 02:39:24;;;;;;;4.03;0.93;;;25.40;79.00;;;;;;5114820;28;20294;-84
2022/10/15 02:41:56;;;;;;;2.97;0.75;;;25.40;82.20;;;;;;5094018;28;20278;-83
2022/10/15 02:44:29;;;;;;;2.78;0.82;;;25.30;84.80;;;;;;5093872;28;20444;-81
2022/10/15 02:47:01;;;;;;;1.98;0.70;;;25.00;84.40;;;;;;5093372;28;20286;-83
2022/10/15 02:49:34;;;;;;;4.93;0.70;;;25.00;85.40;;;;;;5083171;28;20223;-82
2022/10/15 02:52:05;;;;;;;2.58;0.70;;;25.00;85.20;;;;;;5073057;28;20223;-82
2022/10/15 02:54:36;;;;;;;3.70;0.70;;;25.00;87.60;;;;;;5074521;28;20207;-82
2022/10/15 02:57:07;;;;;;;2.15;0.63;;;25.00;86.50;;;;;;5100139;28;20206;-83
2022/10/15 02:59:38;;;;;;;4.55;0.80;;;24.90;88.80;;;;;;5094362;28;20195;-82
2022/10/15 03:02:09;;;;;;;2.42;0.70;;;24.90;92.40;;;;;;5093159;28;20227;-82
2022/10/15 03:04:41;;;;;;;3.20;0.70;;;24.90;91.50;;;;;;5092685;28;20195;-82
2022/10/15 03:07:13;;;;;;;1.90;0.43;;;24.80;90.80;;;;;;5092371;28;20201;-83
2022/10/15 03:09:43;;;;;;;2.70;0.47;;;24.90;89.40;;;;;;5089705;28;20199;-81
2022/10/15 03:12:14;;;;;;;3.65;0.50;;;25.00;86.30;;;;;;5092163;28;20590;-81
2022/10/15 03:14:45;;;;;;;1.42;0.60;;;25.10;87.10;;;;;;5084605;28;20199;-81
2022/10/15 03:17:16;;;;;;;3.20;0.52;;;25.00;93.00;;;;;;5046138;28;710835;-81
2022/10/15 03:19:49;;;;;;;4.13;0.80;;;24.90;94.20;;;;;;5072800;28;20202;-81
2022/10/15 03:22:20;;;;;;;3.35;0.80;;;25.20;95.40;;;;;;5073308;28;20211;-81
2022/10/15 03:24:50;;;;;;;4.30;0.93;;;25.30;93.80;;;;;;5074061;28;20189;-81
2022/10/15 03:27:21;;;;;;;2.45;0.50;;;25.20;93.60;;;;;;5091944;28;20658;-81
2022/10/15 03:29:52;;;;;;;3.25;0.50;;;25.30;93.10;;;;;;5089440;28;20196;-82
2022/10/15 03:32:23;;;;;;;2.45;0.60;;;25.30;92.60;;;;;;5091118;28;20227;-82
2022/10/15 03:34:56;;;;;;;2.42;0.60;;;24.90;90.80;;;;;;5092727;28;20674;-82
2022/10/15 03:37:27;;;;;;;3.60;0.55;;;24.80;92.90;;;;;;5093310;28;20662;-82
2022/10/15 03:39:58;;;;;;;2.33;0.60;;;24.80;94.10;;;;;;5092111;28;20199;-82
2022/10/15 03:42:29;;;;;;;1.92;0.52;;;24.90;94.40;;;;;;5092985;28;20210;-82
2022/10/15 03:45:00;;;;;;;2.13;0.57;;;25.20;92.50;;;;;;5098286;28;20270;-81
2022/10/15 03:47:30;;;;;;;1.25;0.50;;;25.50;93.70;;;;;;5098392;28;20202;-82
2022/10/15 03:50:03;;;;;;;4.10;0.70;;;25.40;93.80;;;;;;5085951;28;20279;-82
2022/10/15 03:52:34;;;;;;;1.00;0.30;;;25.40;91.50;;;;;;5092119;28;20227;-81
2022/10/15 03:55:06;;;;;;;2.08;0.40;;;25.20;90.90;;;;;;5086227;28;20199;-83
2022/10/15 03:57:37;;;;;;;2.20;0.60;;;25.40;90.00;;;;;;5094991;28;20260;-82
2022/10/15 04:00:09;;;;;;;1.92;0.50;;;25.40;90.50;;;;;;5091417;28;20281;-82
2022/10/15 04:02:41;;;;;;;3.90;0.60;;;25.30;88.00;;;;;;5071677;28;20283;-81
2022/10/15 04:05:13;;;;;;;2.47;0.70;;;25.40;89.30;;;;;;5079744;28;20658;-82
2022/10/15 04:07:44;;;;;;;3.38;0.60;;;25.30;88.10;;;;;;5091878;28;20195;-82
2022/10/15 04:10:15;;;;;;;1.48;0.50;;;25.20;91.30;;;;;;5092060;28;20195;-82
2022/10/15 04:12:46;;;;;;;2.22;0.80;;;25.50;92.40;;;;;;5091907;28;20588;-82
2022/10/15 04:15:17;;;;;;;2.15;0.82;;;25.50;93.20;;;;;;5077881;28;20316;-82
2022/10/15 04:17:49;;;;;;;3.03;0.75;;;25.60;90.60;;;;;;5085515;28;20235;-83
2022/10/15 04:20:21;;;;;;;4.47;0.70;;;25.60;91.60;;;;;;5088952;28;20657;-81
2022/10/15 04:22:52;;;;;;;2.35;0.77;;;25.40;93.00;;;;;;5085875;28;20195;-83
2022/10/15 04:25:26;;;;;;;1.10;0.60;;;25.30;94.30;;;;;;5091793;28;20628;-83
2022/10/15 04:27:59;;;;;;;2.17;0.70;;;25.20;94.80;;;;;;5091941;28;20205;-82
2022/10/15 04:30:33;;;;;;;2.08;0.65;;;25.20;96.00;;;;;;5091608;28;20690;-82
2022/10/15 04:33:03;;;;;;;2.15;0.77;;;25.40;95.60;;;;;;5092621;28;20257;-83
2022/10/15 04:35:36;;;;;;;3.80;0.60;;;25.30;95.00;;;;;;5092915;28;20565;-83
2022/10/15 04:38:07;;;;;;;3.30;0.60;;;25.20;94.30;;;;;;5102319;28;20219;-83
2022/10/15 04:40:38;;;;;;;5.38;0.80;;;25.50;93.50;;;;;;5110795;28;20234;-82
2022/10/15 04:43:08;;;;;;;1.80;0.65;;;25.50;95.40;;;;;;5112758;28;20213;-81
2022/10/15 04:45:39;;;;;;;2.17;0.77;;;25.20;94.70;;;;;;5098076;28;20623;-83
2022/10/15 04:48:10;;;;;;;1.67;0.60;;;25.20;95.60;;;;;;5093174;28;20285;-82
2022/10/15 04:50:44;;;;;;;3.38;0.60;;;25.40;95.80;;;;;;5094883;28;20203;-81
2022/10/15 04:53:15;;;;;;;2.55;0.80;;;25.20;96.90;;;;;;5093640;28;20254;-81
2022/10/15 04:55:47;;;;;;;2.47;0.63;;;25.20;96.60;;;;;;5096305;28;20207;-82
2022/10/15 04:58:17;;;;;;;2.72;0.75;;;25.10;99.50;;;;;;5092382;28;20757;-83
2022/10/15 05:00:48;;;;;;;3.47;0.73;;;25.40;99.90;;;;;;5092494;28;20195;-81
2022/10/15 05:03:19;;;;;;;2.03;0.70;;;25.60;96.20;;;;;;5093008;28;20274;-80
2022/10/15 05:05:52;;;;;;;1.60;0.52;;;25.80;95.20;;;;;;5079702;28;20200;-80
2022/10/15 05:08:22;;;;;;;3.50;0.82;;;25.90;95.60;;;;;;5071779;28;20283;-82
2022/10/15 05:10:53;;;;;;;3.70;0.77;;;26.20;96.10;;;;;;5075868;28;20219;-81
2022/10/15 05:13:27;;;;;;;1.58;0.50;;;26.10;96.00;;;;;;5091696;28;20230;-81
2022/10/15 05:15:58;;;;;;;1.75;0.70;;;26.20;93.50;;;;;;5091607;28;20317;-81
2022/10/15 05:18:29;;;;;;;3.08;0.73;;;26.00;93.10;;;;;;5092735;28;20676;-82
2022/10/15 05:21:04;;;;;;;2.53;0.80;;;25.90;94.70;;;;;;5087985;28;20256;-82
2022/10/15 05:23:38;;;;;;;2.72;0.70;;;26.10;95.10;;;;;;5075153;28;20195;-83
2022/10/15 05:26:10;;;;;;;3.22;0.75;;;26.00;97.60;;;;;;5072800;28;20210;-82
2022/10/15 05:28:41;;;;;;;3.67;0.85;;;26.10;98.50;;;;;;5082327;28;20199;-82
2022/10/15 05:31:13;;;;;;;3.53;0.80;;;26.20;97.00;;;;;;5091412;28;20249;-82
2022/10/15 05:33:45;;;;;;;1.90;0.63;;;26.30;97.70;;;;;;5091996;28;20233;-83
2022/10/15 05:36:21;;;;;;;2.00;0.77;;;26.70;96.10;;;;;;5091669;28;20219;-83
2022/10/15 05:38:53;;;;;;;2.42;0.68;;;26.60;96.50;;;;;;5090345;28;20685;-82
2022/10/15 05:41:25;;;;;;;0.95;0.57;;;26.50;96.10;;;;;;5091334;28;20206;-81
2022/10/15 05:43:57;;;;;;;4.55;0.90;;;26.60;96.00;;;;;;5092084;28;20716;-80
2022/10/15 05:46:28;;;;;;;3.70;0.77;;;26.90;96.00;;;;;;5108170;28;20274;-79
2022/10/15 05:48:59;;;;;;;2.65;0.90;;;27.00;94.90;;;;;;5111788;28;20194;-79
2022/10/15 05:51:32;;;;;;;2.20;0.70;;;26.60;95.10;;;;;;5092322;28;20200;-77
2022/10/15 05:54:03;;;;;;;2.10;0.88;;;26.90;95.40;;;;;;5070639;28;20220;-77
2022/10/15 05:56:34;;;;;;;2.72;0.70;;;27.20;92.60;;;;;;5081974;28;20291;-79
2022/10/15 05:59:05;;;;;;;4.60;0.60;;;27.30;91.20;;;;;;5096878;28;20238;-78
2022/10/15 06:01:36;;;;;;;2.47;0.65;;;27.40;90.70;;;;;;5109380;28;20227;-77
2022/10/15 06:04:07;;;;;;;3.75;0.65;;;27.80;91.90;;;;;;5092466;28;20203;-78
2022/10/15 06:06:40;;;;;;;2.50;0.70;;;27.90;90.10;;;;;;5092124;28;20268;-78
2022/10/15 06:09:10;;;;;;;4.75;0.82;;;28.00;90.90;;;;;;5094800;28;20669;-79
2022/10/15 06:11:41;;;;;;;2.63;0.70;;;28.00;90.10;;;;;;5095070;28;20215;-79
2022/10/15 06:14:12;;;;;;;4.05;0.88;;;27.90;90.40;;;;;;5085948;28;20646;-78
2022/10/15 06:16:43;;;;;;;2.67;0.73;;;28.00;90.60;;;;;;5078492;28;20228;-79
2022/10/15 06:19:14;;;;;;;3.17;0.70;;;27.90;90.90;;;;;;5080344;28;20286;-79
2022/10/15 06:21:46;;;;;;;3.08;0.60;;;27.90;91.60;;;;;;5094576;28;20191;-79
2022/10/15 06:24:17;;;;;;;2.88;0.85;;;28.00;90.90;;;;;;5094718;28;20207;-79
2022/10/15 06:26:48;;;;;;;2.90;0.80;;;28.30;91.10;;;;;;5098313;28;20191;-79
2022/10/15 06:29:19;;;;;;;3.00;0.80;;;28.40;91.30;;;;;;5094851;28;20658;-79
2022/10/15 06:31:49;;;;;;;3.90;0.63;;;28.70;89.60;;;;;;5073981;28;20307;-78
2022/10/15 06:34:20;;;;;;;2.97;0.90;;;28.30;90.00;;;;;;5073694;28;20315;-79
2022/10/15 06:36:53;;;;;;;4.95;0.70;;;28.00;89.00;;;;;;5086519;28;20569;-79
2022/10/15 06:39:24;;;;;;;2.45;0.70;;;27.60;91.30;;;;;;5093941;28;20195;-80
2022/10/15 06:41:54;;;;;;;2.10;0.88;;;27.80;91.40;;;;;;5093066;28;20635;-76
2022/10/15 06:44:25;;;;;;;3.95;0.85;;;28.00;90.40;;;;;;5093737;28;20226;-77
2022/10/15 06:46:57;;;;;;;4.03;0.90;;;27.70;91.40;;;;;;5088853;28;20626;-76
2022/10/15 06:49:28;;;;;;;4.13;0.70;;;27.50;92.40;;;;;;5075845;28;20564;-75
2022/10/15 06:52:01;;;;;;;2.80;0.93;;;27.50;91.60;;;;;;5074391;28;20203;-75
2022/10/15 06:54:32;;;;;;;3.13;1.17;;;27.20;92.60;;;;;;5073514;28;20710;-76
2022/10/15 06:57:03;;;;;;;6.13;0.80;;;27.50;91.40;;;;;;5076689;28;20659;-75
2022/10/15 06:59:34;;;;;;;3.55;0.90;;;27.50;90.40;;;;;;5090964;28;20677;-75
2022/10/15 07:02:07;;;;;;;1.98;0.65;;;27.60;91.00;;;;;;5091299;28;20327;-75
2022/10/15 07:04:38;;;;;;;3.97;0.80;;;27.70;90.30;;;;;;5098720;28;20578;-76
2022/10/15 07:07:11;;;;;;;2.40;0.60;;;27.40;91.80;;;;;;5095023;28;20216;-76
2022/10/15 07:09:41;;;;;;;3.58;0.70;;;27.30;92.40;;;;;;5093714;28;20192;-77
2022/10/15 07:12:12;;;;;;;4.03;1.00;;;27.30;92.80;;;;;;5093512;28;20191;-76
2022/10/15 07:14:43;;;;;;;1.95;0.55;;;27.20;93.30;;;;;;5073020;28;20283;-75
2022/10/15 07:17:14;;;;;;;2.80;0.80;;;27.10;93.60;;;;;;5098696;28;20226;-77
2022/10/15 07:19:45;;;;;;;3.35;0.75;;;26.90;92.00;;;;;;5113942;28;20293;-77
2022/10/15 07:22:18;;;;;;;2.78;0.85;;;26.40;94.30;;;;;;5081187;28;20196;-77
2022/10/15 07:24:48;;;;;;;3.17;0.80;;;25.90;96.50;;;;;;5078605;28;20282;-78
2022/10/15 07:27:19;;;;;;;2.22;0.65;;;25.50;99.20;;;;;;5091955;28;20191;-80
2022/10/15 07:29:50;;;;;;;4.22;0.93;;;25.20;99.90;;;;;;5113231;28;20198;-77
2022/10/15 07:32:21;;;;;;;2.65;0.80;;;24.70;99.90;;;;;;5113043;28;21139;-77
2022/10/15 07:34:52;;;;;;;1.65;0.77;;;24.30;99.90;;;;;;5112401;28;20285;-76
2022/10/15 07:37:25;;;;;;;2.85;0.80;;;24.00;99.90;;;;;;5112055;28;20200;-77
2022/10/15 07:39:56;;;;;;;6.25;0.70;;;23.60;99.90;;;;;;5072469;28;20287;-78
2022/10/15 07:42:27;;;;;;;2.92;0.90;;;23.20;99.90;;;;;;5072425;28;20575;-78
2022/10/15 07:44:58;;;;;;;1.88;0.60;;;23.00;99.90;;;;;;5085950;28;20286;-78
2022/10/15 07:47:29;;;;;;;3.22;0.75;;;22.70;99.90;;;;;;5093016;28;20575;-78
2022/10/15 07:50:00;;;;;;;4.35;1.30;;;22.60;99.90;;;;;;5072531;28;20207;-79
2022/10/15 07:52:34;;;;;;;5.50;0.95;;;22.50;99.90;;;;;;5090249;28;20199;-78
2022/10/15 07:55:05;;;;;;;5.47;1.42;;;22.40;99.90;;;;;;5086579;28;20183;-77
2022/10/15 07:57:36;;;;;;;3.35;1.38;;;22.20;99.90;;;;;;5088489;28;20297;-78
2022/10/15 08:00:07;;;;;;;3.47;0.98;;;22.10;99.90;;;;;;5091660;28;20242;-77
2022/10/15 08:02:39;;;;;;;2.50;0.95;;;22.10;99.90;;;;;;5109890;28;20198;-77
2022/10/15 08:05:11;;;;;;;2.42;0.88;;;21.90;99.90;;;;;;5116376;28;20191;-77
2022/10/15 08:07:44;;;;;;;2.40;0.90;;;21.90;99.90;;;;;;5117708;28;20197;-78
2022/10/15 08:10:14;;;;;;;4.95;0.90;;;21.80;99.90;;;;;;5112763;28;20668;-80
2022/10/15 08:12:45;;;;;;;3.58;1.08;;;21.70;99.90;;;;;;5097365;28;20287;-80
2022/10/15 08:15:16;;;;;;;4.18;1.02;;;21.60;99.90;;;;;;5091746;28;20637;-80
2022/10/15 08:17:47;;;;;;;5.57;1.25;;;21.50;99.90;;;;;;5105641;28;20330;-80
2022/10/15 08:20:18;;;;;;;6.50;1.63;;;21.50;99.90;;;;;;5091530;28;20191;-81
2022/10/15 08:22:51;;;;;;;3.97;1.10;;;21.40;99.90;;;;;;5091847;28;20195;-78
2022/10/15 08:25:21;;;;;;;2.90;0.80;;;21.30;99.90;;;;;;5091546;28;20214;-78
2022/10/15 08:27:55;;;;;;;5.80;1.20;;;21.10;99.90;;;;;;5091841;28;20199;-78
2022/10/15 08:30:26;;;;;;;2.10;0.70;;;21.10;99.90;;;;;;5073346;28;20273;-79
2022/10/15 08:32:57;;;;;;;3.30;1.05;;;21.00;99.90;;;;;;5072011;28;20223;-79
2022/10/15 08:35:28;;;;;;;3.08;0.90;;;21.00;99.90;;;;;;5080650;28;20200;-79
2022/10/15 08:38:04;;;;;;;5.47;1.20;;;21.00;99.90;;;;;;5092080;28;20203;-79
2022/10/15 08:40:35;;;;;;;3.95;1.30;;;21.00;99.90;;;;;;5091369;28;20197;-80
2022/10/15 08:43:07;;;;;;;5.85;1.30;;;21.00;99.90;;;;;;5091428;28;20570;-80
2022/10/15 08:45:43;;;;;;;2.97;1.00;;;20.90;99.90;;;;;;5088988;28;20286;-79
2022/10/15 08:48:29;;;;;;;3.97;0.95;;;20.90;99.90;;;;;;5076713;28;20205;-81
2022/10/15 08:58:05;;;;;;;;;;;;;;;;;;;;;
2022/10/15 09:00:57;;;;;;;2.92;1.50;;;20.80;99.90;;;;;;5082235;28;20195;-81
2022/10/15 09:03:50;;;;;;;2.15;0.90;;;20.80;99.90;;;;;;5088639;28;20211;-82
2022/10/15 09:06:25;;;;;;;6.15;1.20;;;20.70;99.90;;;;;;5110551;28;20214;-79
2022/10/15 09:09:26;;;;;;;3.45;0.95;;;20.70;99.90;;;;;;5110935;28;20659;-81
2022/10/15 09:12:46;;;;;;;1.83;1.00;;;20.60;99.90;;;;;;5119689;28;20197;-80
2022/10/15 09:16:03;;;;;;;;;;;;;;;;;;;;;
2022/10/15 09:18:49;;;;;;;2.75;0.80;;;20.60;99.90;;;;;;5100763;28;20199;-81
2022/10/15 09:21:21;;;;;;;3.13;1.20;;;20.50;99.90;;;;;;5102755;28;20198;-81
2022/10/15 09:23:58;;;;;;;3.47;1.00;;;20.50;99.90;;;;;;5099599;28;20502;-81
2022/10/15 09:30:08;;;;;;;4.72;1.20;;;20.50;99.90;;;;;;5097430;28;20287;-79
2022/10/15 09:33:00;;;;;;;3.80;1.10;;;20.50;99.90;;;;;;5097048;28;20222;-81
2022/10/15 09:35:41;;;;;;;4.00;1.10;;;20.40;99.90;;;;;;5099338;28;20199;-79
2022/10/15 09:38:34;;;;;;;3.80;0.90;;;20.40;99.90;;;;;;5083637;28;20257;-80
2022/10/15 09:41:22;;;;;;;2.42;0.85;;;20.40;99.90;;;;;;5077700;28;20196;-81
2022/10/15 09:44:17;;;;;;;1.85;0.65;;;20.40;99.90;;;;;;5083356;28;20237;-81
2022/10/15 09:46:50;;;;;;;5.25;1.00;;;20.40;99.90;;;;;;5080569;28;20291;-81
2022/10/15 09:49:52;;;;;;;3.85;1.10;;;20.40;99.90;;;;;;5091582;28;20215;-82
2022/10/15 09:52:35;;;;;;;3.60;0.80;;;20.40;99.90;;;;;;5092681;28;20251;-80
2022/10/15 09:55:14;;;;;;;2.45;0.85;;;20.50;99.90;;;;;;5090519;28;20223;-80
2022/10/15 09:58:36;;;;;;;1.70;0.80;;;20.50;99.90;;;;;;5103521;28;20243;-78
2022/10/15 10:01:09;;;;;;;2.92;0.95;;;20.50;99.90;;;;;;5095216;28;20202;-78
2022/10/15 10:03:40;;;;;;;2.55;0.63;;;20.50;99.90;;;;;;5086174;28;20641;-77
2022/10/15 10:06:14;;;;;;;4.95;0.95;;;20.40;99.90;;;;;;5082208;28;20700;-77
2022/10/15 10:08:59;;;;;;;3.00;0.60;;;20.40;99.90;;;;;;5084924;28;20282;-78
2022/10/15 10:11:55;;;;;;;2.70;0.80;;;20.40;99.90;;;;;;5097722;28;20199;-78
2022/10/15 10:14:35;;;;;;;3.03;0.80;;;20.50;99.90;;;;;;5109771;28;20249;-78
2022/10/15 10:17:30;;;;;;;3.67;0.95;;;20.40;99.90;;;;;;5107766;28;20262;-79
2022/10/15 10:20:28;;;;;;;2.53;0.75;;;20.40;99.90;;;;;;5110919;28;20178;-78
2022/10/15 10:26:15;;;;;;;3.08;0.70;;;20.50;99.90;;;;;;5127122;28;20171;-80
2022/10/15 10:28:56;;;;;;;3.97;1.40;;;20.50;99.90;;;;;;5103391;28;20210;-80
2022/10/15 10:31:34;;;;;;;5.30;1.48;;;20.50;99.90;;;;;;5080285;28;20215;-80
2022/10/15 10:34:35;;;;;;;2.85;0.90;;;20.50;99.90;;;;;;5118747;28;20250;-80
2022/10/15 10:37:08;;;;;;;4.50;0.90;;;20.50;99.90;;;;;;5122311;28;20277;-80
2022/10/15 10:39:54;;;;;;;5.75;0.90;;;20.50;99.90;;;;;;5089826;28;20196;-79
2022/10/15 10:42:37;;;;;;;2.95;1.00;;;20.50;99.90;;;;;;5083284;28;20199;-79
2022/10/15 10:45:20;;;;;;;5.75;1.35;;;20.40;99.90;;;;;;5088081;28;20199;-80
2022/10/15 10:47:59;;;;;;;2.45;1.00;;;20.50;99.90;;;;;;5093012;28;20196;-80
2022/10/15 10:50:40;;;;;;;3.08;1.10;;;20.40;99.90;;;;;;5114262;28;20302;-76
2022/10/15 10:53:26;;;;;;;5.85;0.90;;;20.40;99.90;;;;;;5126168;28;20261;-79
2022/10/15 10:56:14;;;;;;;3.17;1.00;;;20.40;99.90;;;;;;5089796;28;20200;-78
2022/10/15 10:58:50;;;;;;;7.75;1.20;;;20.40;99.90;;;;;;5080261;28;20223;-79
2022/10/15 11:01:20;;;;;;;2.33;0.73;;;20.40;99.90;;;;;;5078843;28;20223;-78
2022/10/15 11:03:52;;;;;;;4.05;1.02;;;20.40;99.90;;;;;;5083023;28;20620;-79
2022/10/15 11:06:52;;;;;;;3.13;1.10;;;20.40;99.90;;;;;;5087009;28;20205;-79
2022/10/15 11:09:44;;;;;;;3.78;1.05;;;20.40;99.90;;;;;;5122502;28;20194;-78
2022/10/15 11:12:43;;;;;;;6.57;1.38;;;20.40;99.90;;;;;;5111321;28;20199;-77
2022/10/15 11:15:29;;;;;;;3.70;1.10;;;20.30;99.90;;;;;;5121575;28;20228;-77
2022/10/15 11:18:09;;;;;;;5.03;1.13;;;20.30;99.90;;;;;;5121461;28;20653;-77
2022/10/15 11:20:57;;;;;;;4.90;1.48;;;20.40;99.90;;;;;;5079979;28;20206;-78
2022/10/15 11:23:50;;;;;;;5.13;1.30;;;20.30;99.90;;;;;;5088399;28;20293;-78
2022/10/15 11:26:37;;;;;;;2.63;1.10;;;20.30;99.90;;;;;;5098318;28;20278;-79
2022/10/15 11:29:20;;;;;;;3.92;1.35;;;20.30;99.90;;;;;;5081393;28;20286;-77
2022/10/15 11:35:09;;;;;;;7.22;1.58;;;20.30;99.90;;;;;;5096348;28;20215;-78
2022/10/15 11:37:50;;;;;;;4.32;1.20;;;20.30;99.90;;;;;;5075687;28;20283;-78
2022/10/15 11:40:56;;;;;;;3.40;1.30;;;20.30;99.90;;;;;;5099282;28;20262;-78
2022/10/15 11:43:43;;;;;;;3.47;1.40;;;20.30;99.90;;;;;;5106573;28;20211;-79
2022/10/15 11:46:22;;;;;;;3.50;1.10;;;20.20;99.90;;;;;;5101278;28;20199;-78
2022/10/15 11:49:12;;;;;;;4.88;1.20;;;20.20;99.90;;;;;;5103895;28;20839;-79
2022/10/15 11:52:10;;;;;;;3.40;1.15;;;20.20;99.90;;;;;;5105377;28;20202;-78
2022/10/15 11:54:46;;;;;;;5.30;1.50;;;20.20;99.90;;;;;;5099386;28;20283;-77
2022/10/15 11:57:22;;;;;;;4.38;1.40;;;20.20;99.90;;;;;;5092834;28;20246;-77
2022/10/15 11:59:57;;;;;;;4.75;1.20;;;20.20;99.90;;;;;;5122494;28;20211;-78
2022/10/15 12:02:35;;;;;;;3.88;1.25;;;20.20;99.90;;;;;;5120906;28;20202;-79
2022/10/15 12:05:15;;;;;;;4.63;1.00;;;20.20;99.90;;;;;;5116723;28;20198;-77
2022/10/15 12:11:04;;;;;;;3.20;1.08;;;20.20;99.90;;;;;;5086128;28;20301;-77
2022/10/15 12:13:42;;;;;;;4.00;1.23;;;20.10;99.90;;;;;;5082767;28;20214;-78
2022/10/15 12:16:29;;;;;;;3.42;1.23;;;20.20;99.90;;;;;;5122591;28;20248;-79
2022/10/15 12:19:17;;;;;;;4.13;1.20;;;20.20;99.90;;;;;;5116537;28;20195;-79
2022/10/15 12:22:10;;;;;;;3.47;1.27;;;20.20;99.90;;;;;;5113235;28;20639;-79
2022/10/15 12:24:57;;;;;;;4.40;0.93;;;20.20;99.90;;;;;;5112104;28;20194;-78
2022/10/15 12:27:33;;;;;;;6.45;1.52;;;20.10;99.90;;;;;;5090703;28;20229;-78
2022/10/15 12:30:24;;;;;;;3.85;1.20;;;20.10;99.90;;;;;;5093505;28;20679;-77
2022/10/15 12:32:56;;;;;;;2.88;1.10;;;20.10;99.90;;;;;;5093898;28;20199;-77
2022/10/15 12:35:40;;;;;;;4.15;1.20;;;20.10;99.90;;;;;;5093942;28;20227;-78
2022/10/15 12:38:23;;;;;;;4.03;1.30;;;20.10;99.90;;;;;;5091406;28;20281;-77
2022/10/15 12:41:06;;;;;;;4.95;1.10;;;20.00;99.90;;;;;;5077416;28;20225;-77
2022/10/15 12:43:40;;;;;;;5.28;1.25;;;20.00;99.90;;;;;;5076407;28;20372;-78
2022/10/15 12:46:12;;;;;;;4.18;1.05;;;20.00;99.90;;;;;;5074347;28;20211;-77
2022/10/15 12:48:46;;;;;;;3.97;1.30;;;20.00;99.90;;;;;;5074791;28;20231;-77
2022/10/15 12:51:42;;;;;;;6.28;1.70;;;20.00;99.90;;;;;;5075027;28;20204;-78
2022/10/15 12:54:40;;;;;;;3.33;1.00;;;19.90;99.90;;;;;;5095314;28;20203;-78
2022/10/15 12:57:57;;;;;;;5.18;1.13;;;19.90;99.90;;;;;;5095336;28;20188;-78
2022/10/15 13:00:38;;;;;;;4.53;1.00;;;19.90;99.90;;;;;;5032932;28;20216;-79
2022/10/15 13:03:36;;;;;;;3.67;1.10;;;19.90;99.90;;;;;;5012694;28;20615;-78
2022/10/15 13:06:28;;;;;;;3.58;1.10;;;19.90;99.90;;;;;;5065276;28;20200;-78
2022/10/15 13:09:07;;;;;;;2.60;1.10;;;19.90;99.90;;;;;;5073727;28;20607;-78
2022/10/15 13:11:45;;;;;;;3.58;0.98;;;19.90;99.90;;;;;;5072742;28;20215;-78
2022/10/15 13:14:23;;;;;;;5.53;1.00;;;19.90;99.90;;;;;;5073770;28;20214;-78
2022/10/15 13:16:54;;;;;;;4.70;0.95;;;19.90;99.90;;;;;;5092256;28;20317;-78
2022/10/15 13:19:27;;;;;;;3.42;1.05;;;19.90;99.90;;;;;;5077196;28;20195;-78
2022/10/15 13:21:59;;;;;;;3.88;1.25;;;19.90;99.90;;;;;;5075316;28;20621;-78
2022/10/15 13:24:32;;;;;;;4.85;1.08;;;19.90;99.90;;;;;;5094739;28;20278;-78
2022/10/15 13:27:05;;;;;;;3.42;1.33;;;19.80;99.90;;;;;;5095973;28;20195;-78
2022/10/15 13:29:58;;;;;;;3.80;1.38;;;19.90;99.90;;;;;;5096919;28;20626;-78
2022/10/15 13:32:31;;;;;;;4.68;1.40;;;19.90;99.90;;;;;;5104281;28;20206;-78
2022/10/15 13:35:14;;;;;;;4.85;1.80;;;19.90;99.90;;;;;;5094380;28;20596;-78
2022/10/15 13:37:46;;;;;;;6.47;1.52;;;19.90;99.90;;;;;;5078346;28;20222;-78
2022/10/15 13:43:08;;;;;;;5.53;2.05;;;19.80;99.90;;;;;;5096767;28;20187;-79
2022/10/15 13:45:47;;;;;;;6.25;1.60;;;19.80;99.90;;;;;;5101131;28;20658;-79
2022/10/15 13:48:23;;;;;;;6.07;2.10;;;19.80;99.90;;;;;;5096733;28;20662;-79
2022/10/15 13:50:56;;;;;;;4.05;1.50;;;19.70;99.90;;;;;;5097083;28;20202;-80
2022/10/15 13:53:32;;;;;;;6.15;1.60;;;19.70;99.90;;;;;;5096808;28;20293;-80
2022/10/15 13:56:05;;;;;;;4.72;1.60;;;19.80;99.90;;;;;;5098033;28;20719;-80
2022/10/15 13:58:39;;;;;;;3.33;1.35;;;19.80;99.90;;;;;;5117099;28;20281;-80
2022/10/15 14:01:15;;;;;;;5.55;1.45;;;19.70;99.90;;;;;;5105122;28;20191;-80